createdAt,value
2023-05-10T00:00:08.825Z,95.68
2023-05-10T00:01:08.823Z,95.18
2023-05-10T00:02:09.121Z,95.18
2023-05-10T00:03:08.891Z,95.28
2023-05-10T00:04:08.846Z,95.18
2023-05-10T00:05:08.798Z,95.38
2023-05-10T00:06:08.777Z,95.38
2023-05-10T00:07:15.661Z,95.48
2023-05-10T00:08:08.754Z,95.89
2023-05-10T00:09:08.736Z,95.99
2023-05-10T00:10:08.731Z,95.79
2023-05-10T00:11:08.719Z,95.68
2023-05-10T00:12:09.109Z,96.39
2023-05-10T00:13:08.754Z,96.70
2023-05-10T00:14:18.649Z,97.11
2023-05-10T00:15:08.717Z,97.00
2023-05-10T00:16:08.783Z,96.60
2023-05-10T00:17:08.641Z,96.39
2023-05-10T00:18:08.680Z,96.70
2023-05-10T00:19:09.119Z,96.70
2023-05-10T00:20:08.667Z,96.70
2023-05-10T00:21:08.655Z,96.09
2023-05-10T00:22:18.653Z,96.19
2023-05-10T00:23:08.569Z,95.79
2023-05-10T00:24:08.571Z,95.58
2023-05-10T00:25:08.572Z,95.89
2023-05-10T00:26:08.578Z,96.30
2023-05-10T00:27:08.535Z,96.64
2023-05-10T00:28:08.685Z,96.64
2023-05-10T00:29:08.526Z,96.03
2023-05-10T00:30:08.526Z,95.53
2023-05-10T00:31:08.498Z,95.83
2023-05-10T00:32:08.563Z,95.42
2023-05-10T00:33:08.503Z,95.63
2023-05-10T00:34:08.474Z,94.21
2023-05-10T00:35:08.457Z,94.82
2023-05-10T00:36:08.459Z,94.82
2023-05-10T00:37:08.442Z,94.92
2023-05-10T00:38:08.419Z,95.02
2023-05-10T00:39:08.417Z,94.82
2023-05-10T00:40:08.390Z,95.12
2023-05-10T00:41:08.408Z,95.22
2023-05-10T00:42:08.413Z,95.12
2023-05-10T00:43:08.359Z,95.22
2023-05-10T00:44:08.358Z,95.12
2023-05-10T00:45:08.342Z,94.31
2023-05-10T00:46:08.347Z,94.31
2023-05-10T00:47:08.332Z,94.51
2023-05-10T00:48:08.358Z,94.71
2023-05-10T00:49:08.335Z,94.31
2023-05-10T00:50:08.296Z,94.10
2023-05-10T00:51:08.295Z,94.21
2023-05-10T00:52:08.647Z,94.10
2023-05-10T00:53:08.263Z,94.10
2023-05-10T00:54:08.264Z,93.60
2023-05-10T00:55:15.143Z,93.80
2023-05-10T00:56:08.244Z,93.90
2023-05-10T00:57:08.213Z,94.00
2023-05-10T00:58:08.208Z,93.60
2023-05-10T00:59:08.212Z,93.90
2023-05-10T01:00:08.206Z,94.31
2023-05-10T01:01:08.202Z,94.00
2023-05-10T01:02:08.696Z,93.90
2023-05-10T01:03:08.216Z,93.70
2023-05-10T01:04:08.146Z,93.49
2023-05-10T01:05:08.158Z,93.60
2023-05-10T01:06:16.327Z,93.29
2023-05-10T01:07:08.119Z,92.79
2023-05-10T01:08:08.183Z,92.58
2023-05-10T01:09:08.081Z,92.64
2023-05-10T01:10:08.097Z,92.84
2023-05-10T01:11:15.975Z,92.44
2023-05-10T01:12:08.139Z,92.03
2023-05-10T01:13:08.072Z,91.93
2023-05-10T01:14:08.063Z,91.97
2023-05-10T01:15:08.026Z,92.28
2023-05-10T01:16:08.166Z,92.48
2023-05-10T01:17:08.007Z,92.89
2023-05-10T01:18:08.217Z,93.19
2023-05-10T01:19:07.977Z,93.40
2023-05-10T01:20:07.977Z,93.09
2023-05-10T01:21:07.961Z,93.09
2023-05-10T01:22:07.957Z,92.48
2023-05-10T01:23:16.234Z,92.07
2023-05-10T01:24:07.930Z,91.87
2023-05-10T01:25:07.924Z,91.36
2023-05-10T01:26:07.904Z,91.36
2023-05-10T01:27:07.894Z,91.67
2023-05-10T01:28:08.236Z,91.67
2023-05-10T01:29:17.740Z,91.77
2023-05-10T01:30:15.632Z,92.07
2023-05-10T01:31:07.886Z,92.58
2023-05-10T01:32:07.856Z,92.28
2023-05-10T01:33:07.874Z,92.18
2023-05-10T01:34:08.252Z,92.28
2023-05-10T01:35:07.805Z,92.28
2023-05-10T01:36:07.809Z,92.18
2023-05-10T01:37:07.787Z,91.87
2023-05-10T01:38:08.285Z,91.97
2023-05-10T01:39:07.757Z,91.97
2023-05-10T01:40:07.779Z,92.38
2023-05-10T01:41:07.759Z,92.18
2023-05-10T01:42:07.771Z,92.38
2023-05-10T01:43:07.726Z,92.38
2023-05-10T01:44:07.745Z,92.48
2023-05-10T01:45:07.723Z,92.68
2023-05-10T01:46:14.300Z,93.19
2023-05-10T01:47:07.693Z,93.74
2023-05-10T01:48:07.781Z,93.95
2023-05-10T01:49:07.650Z,93.90
2023-05-10T01:50:07.652Z,93.80
2023-05-10T01:51:07.639Z,93.19
2023-05-10T01:52:17.300Z,93.19
2023-05-10T01:53:07.609Z,92.79
2023-05-10T01:54:07.597Z,92.99
2023-05-10T01:55:07.609Z,92.68
2023-05-10T01:56:07.586Z,92.89
2023-05-10T01:57:07.573Z,93.09
2023-05-10T01:58:07.598Z,93.80
2023-05-10T01:59:07.569Z,93.40
2023-05-10T02:00:07.537Z,92.99
2023-05-10T02:01:07.548Z,93.09
2023-05-10T02:02:07.528Z,92.89
2023-05-10T02:03:07.612Z,92.89
2023-05-10T02:04:07.521Z,93.49
2023-05-10T02:05:07.474Z,93.40
2023-05-10T02:06:07.473Z,92.89
2023-05-10T02:07:16.818Z,92.18
2023-05-10T02:08:07.453Z,91.47
2023-05-10T02:09:07.430Z,91.87
2023-05-10T02:10:07.823Z,91.67
2023-05-10T02:11:07.416Z,91.87
2023-05-10T02:12:07.446Z,91.97
2023-05-10T02:13:07.996Z,91.87
2023-05-10T02:14:07.394Z,91.67
2023-05-10T02:15:07.376Z,91.77
2023-05-10T02:16:07.387Z,91.56
2023-05-10T02:17:07.352Z,91.56
2023-05-10T02:18:07.872Z,91.67
2023-05-10T02:19:07.339Z,91.67
2023-05-10T02:20:07.343Z,92.07
2023-05-10T02:21:13.828Z,92.18
2023-05-10T02:22:07.306Z,92.07
2023-05-10T02:23:07.299Z,91.97
2023-05-10T02:24:07.397Z,92.18
2023-05-10T02:25:07.281Z,91.77
2023-05-10T02:26:13.873Z,91.36
2023-05-10T02:27:07.253Z,91.56
2023-05-10T02:28:07.246Z,91.67
2023-05-10T02:29:07.213Z,91.77
2023-05-10T02:32:55.402Z,91.06
2023-05-10T02:34:03.274Z,91.36
2023-05-10T02:34:56.360Z,91.06
2023-05-10T02:35:56.336Z,91.47
2023-05-10T02:36:56.342Z,91.16
2023-05-10T02:37:56.308Z,91.36
2023-05-10T02:38:56.301Z,91.36
2023-05-10T02:39:56.327Z,91.47
2023-05-10T02:40:56.287Z,91.67
2023-05-10T02:41:56.308Z,91.91
2023-05-10T02:42:56.288Z,91.71
2023-05-10T02:43:56.239Z,91.82
2023-05-10T02:44:56.265Z,92.02
2023-05-10T02:45:56.321Z,91.82
2023-05-10T02:46:56.225Z,92.02
2023-05-10T02:47:56.242Z,92.52
2023-05-10T02:48:56.206Z,92.72
2023-05-10T02:49:56.290Z,92.63
2023-05-10T02:50:56.190Z,93.24
2023-05-10T02:51:56.224Z,93.13
2023-05-10T02:52:56.169Z,92.72
2023-05-10T02:53:56.148Z,92.63
2023-05-10T02:54:56.138Z,92.52
2023-05-10T02:55:56.160Z,92.32
2023-05-10T02:56:56.115Z,92.42
2023-05-10T02:57:56.126Z,92.63
2023-05-10T02:58:56.105Z,92.72
2023-05-10T02:59:56.092Z,92.52
2023-05-10T03:00:56.096Z,92.63
2023-05-10T03:01:56.210Z,92.72
2023-05-10T03:02:56.103Z,92.83
2023-05-10T03:03:56.039Z,92.42
2023-05-10T03:04:56.169Z,92.32
2023-05-10T03:05:56.297Z,92.72
2023-05-10T03:06:56.020Z,92.83
2023-05-10T03:07:56.001Z,92.83
2023-05-10T03:08:56.005Z,93.03
2023-05-10T03:09:56.326Z,93.03
2023-05-10T03:10:55.975Z,93.44
2023-05-10T03:11:55.957Z,93.54
2023-05-10T03:12:55.997Z,93.33
2023-05-10T03:13:55.930Z,93.13
2023-05-10T03:14:55.938Z,92.83
2023-05-10T03:15:56.348Z,92.42
2023-05-10T03:16:55.906Z,92.32
2023-05-10T03:17:55.933Z,92.42
2023-05-10T03:18:55.881Z,92.12
2023-05-10T03:19:55.864Z,92.02
2023-05-10T03:20:55.872Z,91.91
2023-05-10T03:21:55.861Z,92.42
2023-05-10T03:22:55.851Z,92.52
2023-05-10T03:23:55.838Z,92.72
2023-05-10T03:24:55.829Z,91.05
2023-05-10T03:25:55.800Z,91.45
2023-05-10T03:26:55.797Z,92.16
2023-05-10T03:27:55.781Z,91.96
2023-05-10T03:28:55.776Z,92.06
2023-05-10T03:29:55.753Z,92.26
2023-05-10T03:30:55.743Z,92.26
2023-05-10T03:31:55.873Z,92.97
2023-05-10T03:32:55.762Z,93.28
2023-05-10T03:33:55.718Z,93.02
2023-05-10T03:34:55.713Z,93.12
2023-05-10T03:35:55.685Z,93.18
2023-05-10T03:36:55.736Z,91.86
2023-05-10T03:37:55.680Z,91.55
2023-05-10T03:38:55.665Z,91.55
2023-05-10T03:39:55.660Z,91.55
2023-05-10T03:40:55.646Z,91.65
2023-05-10T03:42:05.356Z,91.45
2023-05-10T03:42:55.620Z,92.00
2023-05-10T03:43:55.627Z,91.60
2023-05-10T03:44:55.618Z,91.49
2023-05-10T03:45:55.588Z,91.69
2023-05-10T03:46:55.599Z,91.49
2023-05-10T03:47:55.847Z,91.60
2023-05-10T03:48:55.571Z,91.60
2023-05-10T03:49:55.540Z,90.78
2023-05-10T03:50:55.548Z,90.99
2023-05-10T03:51:55.541Z,91.19
2023-05-10T03:52:55.513Z,90.58
2023-05-10T03:53:55.492Z,90.99
2023-05-10T03:54:55.504Z,91.29
2023-05-10T03:55:55.832Z,91.39
2023-05-10T03:56:55.481Z,91.39
2023-05-10T03:58:02.556Z,91.29
2023-05-10T03:58:55.454Z,91.39
2023-05-10T03:59:55.440Z,91.09
2023-05-10T04:00:55.444Z,91.60
2023-05-10T04:01:55.442Z,91.80
2023-05-10T04:02:55.471Z,91.90
2023-05-10T04:03:55.502Z,91.90
2023-05-10T04:04:55.378Z,91.60
2023-05-10T04:05:55.424Z,91.29
2023-05-10T04:06:55.391Z,91.49
2023-05-10T04:07:55.350Z,91.39
2023-05-10T04:11:11.289Z,91.09
2023-05-10T04:12:12.236Z,91.39
2023-05-10T04:13:12.300Z,91.19
2023-05-10T04:14:12.209Z,90.68
2023-05-10T04:15:12.222Z,90.78
2023-05-10T04:16:12.190Z,90.78
2023-05-10T04:17:12.248Z,90.88
2023-05-10T04:18:12.159Z,90.99
2023-05-10T04:19:12.165Z,91.29
2023-05-10T04:20:12.177Z,91.39
2023-05-10T04:21:12.134Z,91.29
2023-05-10T04:22:12.112Z,91.39
2023-05-10T04:23:12.119Z,91.60
2023-05-10T04:24:13.436Z,91.49
2023-05-10T04:25:12.087Z,91.80
2023-05-10T04:26:12.072Z,91.80
2023-05-10T04:27:12.090Z,91.69
2023-05-10T04:28:12.048Z,92.10
2023-05-10T04:29:12.488Z,92.00
2023-05-10T04:30:12.038Z,91.90
2023-05-10T04:31:12.113Z,91.80
2023-05-10T04:32:12.021Z,91.69
2023-05-10T04:33:12.003Z,91.29
2023-05-10T04:34:12.489Z,91.09
2023-05-10T04:35:12.004Z,91.19
2023-05-10T04:36:11.956Z,91.09
2023-05-10T04:37:11.961Z,90.88
2023-05-10T04:38:11.942Z,91.60
2023-05-10T04:39:11.934Z,91.49
2023-05-10T04:40:11.939Z,91.49
2023-05-10T04:41:11.917Z,91.25
2023-05-10T04:42:11.890Z,91.25
2023-05-10T04:43:11.912Z,91.25
2023-05-10T04:44:11.885Z,91.69
2023-05-10T04:45:11.868Z,92.21
2023-05-10T04:46:11.891Z,92.41
2023-05-10T04:47:12.719Z,93.12
2023-05-10T04:48:11.833Z,93.32
2023-05-10T04:49:11.835Z,93.32
2023-05-10T04:50:11.827Z,93.22
2023-05-10T04:51:11.831Z,93.12
2023-05-10T04:52:26.482Z,93.43
2023-05-10T04:53:11.826Z,93.22
2023-05-10T04:54:11.765Z,93.32
2023-05-10T04:55:11.754Z,93.73
2023-05-10T04:56:11.745Z,93.79
2023-05-10T04:57:11.742Z,93.68
2023-05-10T04:58:11.755Z,93.28
2023-05-10T04:59:11.751Z,93.18
2023-05-10T05:00:11.700Z,93.18
2023-05-10T05:01:22.106Z,93.43
2023-05-10T05:02:11.685Z,93.52
2023-05-10T05:03:11.796Z,93.52
2023-05-10T05:04:11.671Z,93.63
2023-05-10T05:05:11.668Z,93.43
2023-05-10T05:06:20.440Z,93.48
2023-05-10T05:07:11.644Z,93.28
2023-05-10T05:08:11.620Z,93.18
2023-05-10T05:09:11.613Z,92.97
2023-05-10T05:10:11.589Z,93.38
2023-05-10T05:11:11.585Z,93.07
2023-05-10T05:12:11.580Z,92.97
2023-05-10T05:13:11.605Z,92.36
2023-05-10T05:14:11.561Z,92.02
2023-05-10T05:15:11.551Z,91.61
2023-05-10T05:16:12.151Z,91.61
2023-05-10T05:17:12.071Z,92.36
2023-05-10T05:18:11.532Z,92.52
2023-05-10T05:19:11.537Z,92.12
2023-05-10T05:20:11.497Z,91.86
2023-05-10T05:21:11.498Z,92.97
2023-05-10T05:22:11.479Z,92.06
2023-05-10T05:23:11.462Z,90.49
2023-05-10T05:24:11.451Z,90.29
2023-05-10T05:25:11.441Z,90.39
2023-05-10T05:26:12.141Z,90.49
2023-05-10T05:27:11.406Z,90.09
2023-05-10T05:28:12.140Z,90.25
2023-05-10T05:29:11.391Z,90.45
2023-05-10T05:30:11.406Z,90.39
2023-05-10T05:31:11.529Z,90.35
2023-05-10T05:32:11.465Z,90.14
2023-05-10T05:33:11.376Z,90.96
2023-05-10T05:34:11.634Z,90.96
2023-05-10T05:35:11.339Z,90.66
2023-05-10T05:36:11.319Z,91.16
2023-05-10T05:37:11.326Z,91.16
2023-05-10T05:38:11.296Z,90.66
2023-05-10T05:39:11.292Z,90.51
2023-05-10T05:40:11.289Z,90.41
2023-05-10T05:41:11.269Z,90.92
2023-05-10T05:42:11.245Z,91.12
2023-05-10T05:43:11.326Z,90.81
2023-05-10T05:44:11.251Z,90.92
2023-05-10T05:45:11.565Z,90.61
2023-05-10T05:46:11.298Z,90.51
2023-05-10T05:47:11.241Z,90.61
2023-05-10T05:48:11.274Z,90.31
2023-05-10T05:49:11.190Z,90.96
2023-05-10T05:50:11.176Z,91.97
2023-05-10T05:51:11.181Z,92.18
2023-05-10T05:52:11.187Z,91.16
2023-05-10T05:53:11.138Z,91.36
2023-05-10T05:54:11.414Z,91.32
2023-05-10T05:55:11.125Z,90.81
2023-05-10T05:56:11.906Z,90.51
2023-05-10T05:57:11.157Z,90.20
2023-05-10T05:58:11.095Z,90.41
2023-05-10T05:59:14.997Z,90.20
2023-05-10T06:00:11.384Z,89.86
2023-05-10T06:01:11.053Z,89.55
2023-05-10T06:02:12.098Z,89.55
2023-05-10T06:03:12.725Z,89.76
2023-05-10T06:04:12.855Z,89.65
2023-05-10T06:05:11.672Z,89.31
2023-05-10T06:06:21.968Z,89.81
2023-05-10T06:07:11.066Z,89.51
2023-05-10T06:08:17.579Z,89.01
2023-05-10T06:09:10.977Z,89.01
2023-05-10T06:10:10.956Z,88.49
2023-05-10T06:11:11.053Z,89.01
2023-05-10T06:12:22.203Z,88.90
2023-05-10T06:13:10.991Z,88.40
2023-05-10T06:14:11.505Z,88.09
2023-05-10T06:15:10.910Z,87.89
2023-05-10T06:16:11.146Z,88.20
2023-05-10T06:17:10.869Z,88.09
2023-05-10T06:18:20.632Z,88.09
2023-05-10T06:19:10.849Z,88.40
2023-05-10T06:20:11.729Z,87.99
2023-05-10T06:21:10.841Z,87.69
2023-05-10T06:22:10.827Z,87.89
2023-05-10T06:23:10.821Z,88.29
2023-05-10T06:24:16.801Z,88.80
2023-05-10T06:25:10.782Z,88.60
2023-05-10T06:26:11.152Z,88.20
2023-05-10T06:27:10.779Z,88.20
2023-05-10T06:28:12.063Z,87.74
2023-05-10T06:29:10.750Z,87.14
2023-05-10T06:30:13.396Z,86.94
2023-05-10T06:31:10.797Z,87.04
2023-05-10T06:32:10.708Z,87.34
2023-05-10T06:33:11.197Z,87.24
2023-05-10T06:34:10.676Z,87.59
2023-05-10T06:35:11.203Z,87.85
2023-05-10T06:36:10.671Z,87.74
2023-05-10T06:37:10.689Z,86.83
2023-05-10T06:38:10.663Z,86.69
2023-05-10T06:39:10.654Z,86.49
2023-05-10T06:40:10.678Z,86.08
2023-05-10T06:41:10.631Z,87.00
2023-05-10T06:42:10.602Z,88.05
2023-05-10T06:43:10.618Z,88.15
2023-05-10T06:44:20.790Z,88.46
2023-05-10T06:45:10.565Z,88.56
2023-05-10T06:46:10.635Z,87.91
2023-05-10T06:47:10.553Z,87.20
2023-05-10T06:48:10.571Z,85.99
2023-05-10T06:49:10.710Z,86.49
2023-05-10T06:50:10.535Z,86.25
2023-05-10T06:51:10.512Z,86.79
2023-05-10T06:52:10.496Z,86.79
2023-05-10T06:53:10.493Z,86.25
2023-05-10T06:54:10.673Z,86.15
2023-05-10T06:55:10.694Z,86.35
2023-05-10T06:56:10.681Z,84.83
2023-05-10T06:57:23.302Z,85.64
2023-05-10T06:58:10.430Z,84.83
2023-05-10T06:59:10.809Z,83.92
2023-05-10T07:00:10.478Z,83.78
2023-05-10T07:01:10.484Z,82.97
2023-05-10T07:02:10.428Z,82.67
2023-05-10T07:03:10.768Z,82.62
2023-05-10T07:04:17.453Z,82.53
2023-05-10T07:05:10.361Z,82.53
2023-05-10T07:06:21.700Z,82.12
2023-05-10T07:07:10.333Z,82.08
2023-05-10T07:08:10.334Z,81.68
2023-05-10T07:09:10.387Z,81.48
2023-05-10T07:10:10.810Z,80.97
2023-05-10T07:11:10.733Z,81.07
2023-05-10T07:12:12.140Z,81.71
2023-05-10T07:13:10.395Z,82.73
2023-05-10T07:14:10.273Z,82.12
2023-05-10T07:15:10.265Z,81.57
2023-05-10T07:16:10.250Z,80.77
2023-05-10T07:17:10.386Z,80.12
2023-05-10T07:18:10.335Z,80.32
2023-05-10T07:19:10.263Z,80.53
2023-05-10T07:20:10.197Z,80.02
2023-05-10T07:21:10.213Z,80.26
2023-05-10T07:22:10.174Z,80.66
2023-05-10T07:23:10.425Z,81.27
2023-05-10T07:24:10.715Z,80.53
2023-05-10T07:25:10.186Z,80.22
2023-05-10T07:26:10.118Z,80.02
2023-05-10T07:27:10.126Z,79.08
2023-05-10T07:28:10.106Z,77.15
2023-05-10T07:29:10.419Z,76.95
2023-05-10T07:30:10.224Z,76.04
2023-05-10T07:31:10.144Z,74.80
2023-05-10T07:32:10.078Z,74.80
2023-05-10T07:33:10.789Z,74.26
2023-05-10T07:34:10.050Z,74.46
2023-05-10T07:35:10.230Z,73.75
2023-05-10T07:36:10.269Z,73.01
2023-05-10T07:37:10.029Z,73.01
2023-05-10T07:38:12.384Z,73.75
2023-05-10T07:39:16.264Z,74.76
2023-05-10T07:40:10.248Z,75.87
2023-05-10T07:41:10.632Z,75.40
2023-05-10T07:42:11.542Z,76.35
2023-05-10T07:43:10.025Z,77.70
2023-05-10T07:44:09.923Z,77.86
2023-05-10T07:45:09.941Z,76.35
2023-05-10T07:46:12.668Z,76.55
2023-05-10T07:47:09.922Z,76.65
2023-05-10T07:48:10.715Z,76.15
2023-05-10T07:49:10.229Z,75.64
2023-05-10T07:50:10.284Z,76.59
2023-05-10T07:51:11.063Z,76.39
2023-05-10T07:56:46.169Z,78.44
2023-05-10T07:57:46.163Z,76.79
2023-05-10T07:58:46.658Z,75.98
2023-05-10T07:59:46.218Z,75.84
2023-05-10T08:00:46.139Z,75.54
2023-05-10T08:01:46.335Z,75.34
2023-05-10T08:02:46.225Z,76.52
2023-05-10T08:03:46.207Z,78.14
2023-05-10T08:04:47.265Z,78.24
2023-05-10T08:05:46.076Z,78.95
2023-05-10T08:06:46.091Z,78.85
2023-05-10T08:07:46.219Z,79.35
2023-05-10T08:08:46.055Z,79.21
2023-05-10T08:09:46.032Z,78.41
2023-05-10T08:10:46.037Z,78.20
2023-05-10T08:11:46.060Z,78.27
2023-05-10T08:12:46.002Z,77.32
2023-05-10T08:13:46.135Z,76.82
2023-05-10T08:14:46.001Z,77.62
2023-05-10T08:15:45.989Z,77.39
2023-05-10T08:16:45.969Z,76.38
2023-05-10T08:17:46.003Z,74.76
2023-05-10T08:18:46.038Z,74.93
2023-05-10T08:19:45.934Z,73.99
2023-05-10T08:20:45.919Z,73.58
2023-05-10T08:21:46.680Z,70.76
2023-05-10T08:22:46.900Z,70.66
2023-05-10T08:23:45.879Z,70.46
2023-05-10T08:24:45.884Z,70.97
2023-05-10T08:25:45.861Z,70.06
2023-05-10T08:26:46.146Z,69.08
2023-05-10T08:27:45.839Z,69.28
2023-05-10T08:28:45.819Z,69.28
2023-05-10T08:29:50.208Z,69.99
2023-05-10T08:30:45.874Z,69.72
2023-05-10T08:31:45.842Z,70.22
2023-05-10T08:32:45.813Z,69.85
2023-05-10T08:33:46.138Z,71.30
2023-05-10T08:34:46.142Z,71.33
2023-05-10T08:35:45.765Z,72.14
2023-05-10T08:36:46.795Z,73.05
2023-05-10T08:37:46.664Z,72.75
2023-05-10T08:38:45.741Z,72.78
2023-05-10T08:39:46.043Z,73.28
2023-05-10T08:40:47.201Z,73.90
2023-05-10T08:41:46.249Z,74.10
2023-05-10T08:42:45.687Z,74.19
2023-05-10T08:43:45.949Z,74.19
2023-05-10T08:44:46.670Z,74.16
2023-05-10T08:45:46.285Z,74.26
2023-05-10T08:46:45.705Z,73.35
2023-05-10T08:47:45.747Z,73.35
2023-05-10T08:48:45.614Z,73.05
2023-05-10T08:49:45.635Z,73.46
2023-05-10T08:50:45.633Z,73.90
2023-05-10T08:51:45.586Z,74.30
2023-05-10T08:52:45.811Z,74.70
2023-05-10T08:53:45.557Z,74.40
2023-05-10T08:54:45.548Z,74.30
2023-05-10T08:55:45.564Z,73.39
2023-05-10T08:56:46.498Z,74.30
2023-05-10T08:57:45.661Z,74.50
2023-05-10T08:58:45.526Z,73.59
2023-05-10T08:59:45.531Z,74.10
2023-05-10T09:00:45.557Z,74.30
2023-05-10T09:01:45.622Z,74.50
2023-05-10T09:02:45.917Z,74.30
2023-05-10T09:03:45.526Z,74.80
2023-05-10T09:04:45.549Z,74.50
2023-05-10T09:05:45.446Z,73.99
2023-05-10T09:06:45.697Z,73.90
2023-05-10T09:07:45.668Z,74.50
2023-05-10T09:08:45.680Z,74.90
2023-05-10T09:09:46.015Z,74.37
2023-05-10T09:10:45.435Z,73.42
2023-05-10T09:11:45.422Z,73.52
2023-05-10T09:12:45.637Z,73.38
2023-05-10T09:13:45.346Z,72.58
2023-05-10T09:14:45.659Z,71.64
2023-05-10T09:15:46.744Z,71.94
2023-05-10T09:16:45.657Z,72.17
2023-05-10T09:17:45.333Z,72.68
2023-05-10T09:18:45.361Z,72.75
2023-05-10T09:19:45.669Z,72.34
2023-05-10T09:20:48.114Z,72.20
2023-05-10T09:21:45.315Z,70.66
2023-05-10T09:22:45.297Z,70.66
2023-05-10T09:23:48.040Z,70.46
2023-05-10T09:24:45.690Z,70.53
2023-05-10T09:25:45.264Z,69.62
2023-05-10T09:26:45.241Z,69.32
2023-05-10T09:27:45.214Z,70.06
2023-05-10T09:28:46.379Z,69.12
2023-05-10T09:29:45.203Z,68.11
2023-05-10T09:30:45.672Z,69.55
2023-05-10T09:31:45.214Z,70.36
2023-05-10T09:32:45.209Z,70.56
2023-05-10T09:33:45.141Z,70.26
2023-05-10T09:34:45.153Z,69.25
2023-05-10T09:35:45.185Z,70.29
2023-05-10T09:36:45.282Z,70.12
2023-05-10T09:37:45.166Z,71.67
2023-05-10T09:38:45.077Z,70.56
2023-05-10T09:39:45.081Z,71.47
2023-05-10T09:40:45.108Z,71.26
2023-05-10T09:41:45.060Z,71.10
2023-05-10T09:42:45.050Z,69.62
2023-05-10T09:43:45.063Z,70.66
2023-05-10T09:44:45.076Z,70.36
2023-05-10T09:45:45.820Z,71.67
2023-05-10T09:46:45.041Z,71.06
2023-05-10T09:47:45.168Z,72.61
2023-05-10T09:48:45.393Z,72.38
2023-05-10T09:49:44.986Z,73.28
2023-05-10T09:50:44.971Z,72.48
2023-05-10T09:51:44.961Z,71.77
2023-05-10T09:52:45.017Z,70.86
2023-05-10T09:53:44.939Z,71.67
2023-05-10T09:54:44.922Z,71.97
2023-05-10T09:55:45.701Z,72.78
2023-05-10T09:56:44.915Z,71.77
2023-05-10T09:57:44.885Z,70.53
2023-05-10T09:58:44.870Z,72.08
2023-05-10T09:59:44.881Z,70.42
2023-05-10T10:00:44.882Z,72.64
2023-05-10T10:01:44.923Z,71.33
2023-05-10T10:02:44.894Z,70.83
2023-05-10T10:03:44.852Z,70.42
2023-05-10T10:04:44.904Z,69.82
2023-05-10T10:05:45.174Z,69.31
2023-05-10T10:06:45.675Z,69.51
2023-05-10T10:07:44.783Z,70.22
2023-05-10T10:08:44.761Z,69.71
2023-05-10T10:09:44.810Z,69.68
2023-05-10T10:10:44.959Z,69.38
2023-05-10T10:11:45.226Z,69.31
2023-05-10T10:12:44.748Z,69.82
2023-05-10T10:18:37.422Z,67.10
2023-05-10T10:19:38.565Z,66.39
2023-05-10T10:20:38.365Z,65.55
2023-05-10T10:21:38.391Z,65.55
2023-05-10T10:22:38.348Z,66.39
2023-05-10T10:23:38.368Z,66.39
2023-05-10T10:24:38.344Z,64.87
2023-05-10T10:25:38.305Z,65.41
2023-05-10T10:26:38.300Z,64.67
2023-05-10T10:27:38.310Z,65.08
2023-05-10T10:28:38.285Z,63.87
2023-05-10T10:29:38.249Z,64.47
2023-05-10T10:30:38.264Z,64.54
2023-05-10T10:31:38.290Z,64.04
2023-05-10T10:32:38.265Z,64.44
2023-05-10T10:33:38.247Z,63.20
2023-05-10T10:34:38.437Z,63.00
2023-05-10T10:35:38.196Z,63.00
2023-05-10T10:36:38.308Z,62.70
2023-05-10T10:37:38.220Z,62.90
2023-05-10T10:38:38.159Z,62.09
2023-05-10T10:39:39.381Z,62.52
2023-05-10T10:40:38.158Z,61.89
2023-05-10T10:41:38.261Z,62.80
2023-05-10T10:42:38.553Z,62.26
2023-05-10T10:43:38.127Z,60.85
2023-05-10T10:44:38.265Z,61.46
2023-05-10T10:45:38.490Z,61.86
2023-05-10T10:46:38.119Z,61.86
2023-05-10T10:47:38.100Z,62.06
2023-05-10T10:48:38.060Z,60.15
2023-05-10T10:49:38.060Z,60.12
2023-05-10T10:50:38.046Z,60.96
2023-05-10T10:51:38.041Z,61.56
2023-05-10T10:52:38.210Z,59.62
2023-05-10T10:53:38.025Z,59.82
2023-05-10T10:54:38.163Z,59.82
2023-05-10T10:55:37.977Z,60.52
2023-05-10T10:56:38.235Z,60.29
2023-05-10T10:57:37.987Z,60.80
2023-05-10T10:58:37.962Z,60.47
2023-05-10T10:59:37.933Z,59.83
2023-05-10T11:00:38.945Z,58.93
2023-05-10T11:01:38.015Z,58.75
2023-05-10T11:02:37.933Z,59.03
2023-05-10T11:03:37.903Z,58.40
2023-05-10T11:04:37.953Z,56.59
2023-05-10T11:05:37.880Z,57.92
2023-05-10T11:06:38.009Z,57.98
2023-05-10T11:07:37.865Z,57.07
2023-05-10T11:08:38.363Z,57.37
2023-05-10T11:09:37.831Z,58.81
2023-05-10T11:10:37.810Z,58.98
2023-05-10T11:11:37.811Z,59.59
2023-05-10T11:12:37.805Z,59.56
2023-05-10T11:13:37.813Z,57.85
2023-05-10T11:14:37.767Z,58.45
2023-05-10T11:15:37.749Z,59.56
2023-05-10T11:16:37.803Z,59.33
2023-05-10T11:17:37.766Z,57.62
2023-05-10T11:18:37.859Z,57.24
2023-05-10T11:19:37.786Z,57.35
2023-05-10T11:20:37.710Z,55.48
2023-05-10T11:21:37.701Z,53.97
2023-05-10T11:22:37.697Z,52.59
2023-05-10T11:23:37.684Z,53.22
2023-05-10T11:24:37.664Z,53.52
2023-05-10T11:25:37.647Z,52.62
2023-05-10T11:26:37.789Z,52.31
2023-05-10T11:27:37.637Z,52.22
2023-05-10T11:28:37.613Z,52.01
2023-05-10T11:29:37.794Z,52.11
2023-05-10T11:30:37.717Z,52.62
2023-05-10T11:31:37.799Z,52.92
2023-05-10T11:32:37.630Z,52.69
2023-05-10T11:33:37.578Z,53.12
2023-05-10T11:34:37.541Z,53.92
2023-05-10T11:35:37.541Z,53.52
2023-05-10T11:36:37.581Z,53.63
2023-05-10T11:37:37.519Z,53.92
2023-05-10T11:38:37.510Z,54.13
2023-05-10T11:39:37.492Z,53.80
2023-05-10T11:40:37.505Z,53.83
2023-05-10T11:41:37.473Z,54.63
2023-05-10T11:42:37.466Z,54.50
2023-05-10T11:43:37.458Z,54.30
2023-05-10T11:44:37.437Z,54.60
2023-05-10T11:45:37.435Z,53.92
2023-05-10T11:46:37.455Z,54.83
2023-05-10T11:47:37.819Z,55.76
2023-05-10T11:48:37.399Z,55.76
2023-05-10T11:49:37.806Z,56.77
2023-05-10T11:50:37.383Z,56.34
2023-05-10T11:51:37.390Z,56.01
2023-05-10T11:52:37.791Z,55.58
2023-05-10T11:53:37.338Z,55.28
2023-05-10T11:54:37.337Z,54.96
2023-05-10T11:55:37.321Z,54.58
2023-05-10T11:56:37.308Z,54.55
2023-05-10T11:57:37.309Z,54.85
2023-05-10T11:58:37.286Z,55.18
2023-05-10T11:59:37.270Z,55.28
2023-05-10T12:00:37.266Z,55.81
2023-05-10T12:01:37.289Z,56.31
2023-05-10T12:02:37.401Z,56.09
2023-05-10T12:03:37.384Z,57.02
2023-05-10T12:04:37.240Z,57.95
2023-05-10T12:05:37.206Z,57.92
2023-05-10T12:06:37.193Z,57.72
2023-05-10T12:07:37.199Z,57.65
2023-05-10T12:08:37.210Z,57.85
2023-05-10T12:09:43.936Z,58.02
2023-05-10T12:10:37.174Z,57.95
2023-05-10T12:11:37.155Z,57.42
2023-05-10T12:12:37.113Z,55.88
2023-05-10T12:13:37.169Z,54.75
2023-05-10T12:14:37.113Z,54.45
2023-05-10T12:15:37.110Z,54.45
2023-05-10T12:16:37.196Z,54.13
2023-05-10T12:17:37.367Z,54.13
2023-05-10T12:18:37.132Z,54.72
2023-05-10T12:19:37.058Z,54.43
2023-05-10T12:20:37.044Z,54.20
2023-05-10T12:21:37.103Z,54.13
2023-05-10T12:22:37.053Z,53.42
2023-05-10T12:23:37.006Z,53.37
2023-05-10T12:24:37.426Z,53.80
2023-05-10T12:25:37.000Z,54.43
2023-05-10T12:26:36.987Z,53.97
2023-05-10T12:27:36.998Z,52.67
2023-05-10T12:28:37.056Z,51.68
2023-05-10T12:29:36.938Z,51.97
2023-05-10T12:30:36.958Z,51.24
2023-05-10T12:31:36.966Z,49.95
2023-05-10T12:32:36.940Z,51.18
2023-05-10T12:33:36.898Z,52.39
2023-05-10T12:34:36.956Z,52.87
2023-05-10T12:35:36.877Z,53.17
2023-05-10T12:36:36.873Z,52.67
2023-05-10T12:37:36.874Z,53.27
2023-05-10T12:38:36.888Z,54.40
2023-05-10T12:39:36.844Z,53.97
2023-05-10T12:40:36.908Z,53.97
2023-05-10T12:41:36.807Z,54.60
2023-05-10T12:42:36.915Z,55.21
2023-05-10T12:43:36.827Z,55.11
2023-05-10T12:44:36.784Z,54.75
2023-05-10T12:45:36.808Z,54.60
2023-05-10T12:46:36.757Z,55.61
2023-05-10T12:47:37.453Z,55.31
2023-05-10T12:48:37.420Z,54.88
2023-05-10T12:49:36.778Z,56.21
2023-05-10T12:50:36.715Z,56.62
2023-05-10T12:51:36.711Z,56.82
2023-05-10T12:52:36.705Z,56.29
2023-05-10T12:53:36.690Z,55.13
2023-05-10T12:54:36.676Z,54.40
2023-05-10T12:55:36.660Z,54.07
2023-05-10T12:56:36.672Z,53.64
2023-05-10T12:57:36.632Z,53.14
2023-05-10T12:58:36.624Z,53.64
2023-05-10T12:59:38.182Z,54.10
2023-05-10T13:00:36.609Z,55.43
2023-05-10T13:01:36.734Z,56.36
2023-05-10T13:02:36.607Z,56.03
2023-05-10T13:03:36.576Z,55.93
2023-05-10T13:04:36.578Z,57.12
2023-05-10T13:05:36.556Z,57.19
2023-05-10T13:06:36.552Z,56.46